sensor_id;sensor_type;location;lat;lon;timestamp;temperature;humidity
23188;DHT22;11762;59.878;17.686;2023-04-01T00:01:18;-6.20;99.90
23188;DHT22;11762;59.878;17.686;2023-04-01T00:03:45;-6.20;99.90
23188;DHT22;11762;59.878;17.686;2023-04-01T00:06:17;-6.30;99.90
23188;DHT22;11762;59.878;17.686;2023-04-01T00:08:44;-6.30;99.90
23188;DHT22;11762;59.878;17.686;2023-04-01T00:11:12;-6.40;99.90
23188;DHT22;11762;59.878;17.686;2023-04-01T00:13:39;-6.40;99.90
23188;DHT22;11762;59.878;17.686;2023-04-01T00:16:06;-6.40;99.90
23188;DHT22;11762;59.878;17.686;2023-04-01T00:18:33;-6.50;99.90
23188;DHT22;11762;59.878;17.686;2023-04-01T00:21:01;-6.50;99.90
23188;DHT22;11762;59.878;17.686;2023-04-01T00:23:29;-6.60;99.90
23188;DHT22;11762;59.878;17.686;2023-04-01T00:25:59;-6.50;99.90
23188;DHT22;11762;59.878;17.686;2023-04-01T00:28:26;-6.60;99.90
23188;DHT22;11762;59.878;17.686;2023-04-01T00:30:54;-6.60;99.90
23188;DHT22;11762;59.878;17.686;2023-04-01T00:33:21;-6.50;99.90
23188;DHT22;11762;59.878;17.686;2023-04-01T00:35:48;-6.60;99.90
23188;DHT22;11762;59.878;17.686;2023-04-01T00:38:15;-6.70;99.90
23188;DHT22;11762;59.878;17.686;2023-04-01T00:40:45;-6.70;99.90
23188;DHT22;11762;59.878;17.686;2023-04-01T00:43:15;-6.70;99.90
23188;DHT22;11762;59.878;17.686;2023-04-01T00:45:44;-6.60;99.90
23188;DHT22;11762;59.878;17.686;2023-04-01T00:48:15;-6.60;99.90
23188;DHT22;11762;59.878;17.686;2023-04-01T00:50:48;-6.60;99.90
23188;DHT22;11762;59.878;17.686;2023-04-01T00:53:17;-6.60;99.90
23188;DHT22;11762;59.878;17.686;2023-04-01T00:55:50;-6.60;99.90
23188;DHT22;11762;59.878;17.686;2023-04-01T00:58:21;-6.60;99.90
23188;DHT22;11762;59.878;17.686;2023-04-01T01:00:49;-6.60;99.90
23188;DHT22;11762;59.878;17.686;2023-04-01T01:03:17;-6.60;99.90
23188;DHT22;11762;59.878;17.686;2023-04-01T01:09:02;-6.70;99.90
23188;DHT22;11762;59.878;17.686;2023-04-01T01:11:37;-6.70;99.90
23188;DHT22;11762;59.878;17.686;2023-04-01T01:14:10;-6.70;99.90
23188;DHT22;11762;59.878;17.686;2023-04-01T01:16:42;-6.70;99.90
23188;DHT22;11762;59.878;17.686;2023-04-01T01:19:19;-6.70;99.90
23188;DHT22;11762;59.878;17.686;2023-04-01T01:22:09;-6.70;99.90
23188;DHT22;11762;59.878;17.686;2023-04-01T01:24:55;-6.80;99.90
23188;DHT22;11762;59.878;17.686;2023-04-01T01:27:31;-6.80;99.90
23188;DHT22;11762;59.878;17.686;2023-04-01T01:30:18;-6.90;99.90
23188;DHT22;11762;59.878;17.686;2023-04-01T01:33:17;-6.90;99.90
23188;DHT22;11762;59.878;17.686;2023-04-01T01:35:48;-6.90;99.90
23188;DHT22;11762;59.878;17.686;2023-04-01T01:38:18;-7.00;99.90
23188;DHT22;11762;59.878;17.686;2023-04-01T01:40:49;-7.00;99.90
23188;DHT22;11762;59.878;17.686;2023-04-01T01:43:22;-7.10;99.90
23188;DHT22;11762;59.878;17.686;2023-04-01T01:45:52;-7.10;99.90
23188;DHT22;11762;59.878;17.686;2023-04-01T01:48:21;-7.20;99.90
23188;DHT22;11762;59.878;17.686;2023-04-01T01:50:50;-7.20;99.90
23188;DHT22;11762;59.878;17.686;2023-04-01T01:53:17;-7.30;99.90
23188;DHT22;11762;59.878;17.686;2023-04-01T01:55:45;-7.30;99.90
23188;DHT22;11762;59.878;17.686;2023-04-01T01:58:16;-7.30;99.90
23188;DHT22;11762;59.878;17.686;2023-04-01T02:00:48;-7.30;99.90
23188;DHT22;11762;59.878;17.686;2023-04-01T02:03:16;-7.30;99.90
23188;DHT22;11762;59.878;17.686;2023-04-01T02:05:44;-7.30;99.90
23188;DHT22;11762;59.878;17.686;2023-04-01T02:08:15;-7.30;99.90
23188;DHT22;11762;59.878;17.686;2023-04-01T02:10:47;-7.20;99.90
23188;DHT22;11762;59.878;17.686;2023-04-01T02:13:21;-7.20;99.90
23188;DHT22;11762;59.878;17.686;2023-04-01T02:15:50;-7.30;99.90
23188;DHT22;11762;59.878;17.686;2023-04-01T02:18:21;-7.30;99.90
23188;DHT22;11762;59.878;17.686;2023-04-01T02:20:49;-7.30;99.90
23188;DHT22;11762;59.878;17.686;2023-04-01T02:23:20;-7.30;99.90
23188;DHT22;11762;59.878;17.686;2023-04-01T02:25:47;-7.30;99.90
23188;DHT22;11762;59.878;17.686;2023-04-01T02:28:14;-7.30;99.90
23188;DHT22;11762;59.878;17.686;2023-04-01T02:30:45;-7.30;99.90
23188;DHT22;11762;59.878;17.686;2023-04-01T02:33:13;-7.30;99.90
23188;DHT22;11762;59.878;17.686;2023-04-01T02:35:40;-7.40;99.90
23188;DHT22;11762;59.878;17.686;2023-04-01T02:38:08;-7.40;99.90
23188;DHT22;11762;59.878;17.686;2023-04-01T02:40:45;-7.40;99.90
23188;DHT22;11762;59.878;17.686;2023-04-01T02:43:12;-7.30;99.90
23188;DHT22;11762;59.878;17.686;2023-04-01T02:45:40;-7.30;99.90
23188;DHT22;11762;59.878;17.686;2023-04-01T02:48:07;-7.30;99.90
23188;DHT22;11762;59.878;17.686;2023-04-01T02:50:34;-7.30;99.90
23188;DHT22;11762;59.878;17.686;2023-04-01T02:53:01;-7.30;99.90
23188;DHT22;11762;59.878;17.686;2023-04-01T02:55:31;-7.20;99.90
23188;DHT22;11762;59.878;17.686;2023-04-01T02:58:00;-7.20;99.90
23188;DHT22;11762;59.878;17.686;2023-04-01T03:00:28;-7.20;99.90
23188;DHT22;11762;59.878;17.686;2023-04-01T03:02:55;-7.20;99.90
23188;DHT22;11762;59.878;17.686;2023-04-01T03:05:22;-7.20;99.90
23188;DHT22;11762;59.878;17.686;2023-04-01T03:07:50;-7.20;99.90
23188;DHT22;11762;59.878;17.686;2023-04-01T03:10:17;-7.20;99.90
23188;DHT22;11762;59.878;17.686;2023-04-01T03:12:44;-7.20;99.90
23188;DHT22;11762;59.878;17.686;2023-04-01T03:15:13;-7.20;99.90
23188;DHT22;11762;59.878;17.686;2023-04-01T03:17:42;-7.10;99.90
23188;DHT22;11762;59.878;17.686;2023-04-01T03:20:10;-7.20;99.90
23188;DHT22;11762;59.878;17.686;2023-04-01T03:22:37;-7.30;99.90
23188;DHT22;11762;59.878;17.686;2023-04-01T03:25:06;-7.30;99.90
23188;DHT22;11762;59.878;17.686;2023-04-01T03:27:34;-7.30;99.90
23188;DHT22;11762;59.878;17.686;2023-04-01T03:30:01;-7.40;99.90
23188;DHT22;11762;59.878;17.686;2023-04-01T03:32:30;-7.40;99.90
23188;DHT22;11762;59.878;17.686;2023-04-01T03:34:57;-7.40;99.90
23188;DHT22;11762;59.878;17.686;2023-04-01T03:37:24;-7.50;99.90
23188;DHT22;11762;59.878;17.686;2023-04-01T03:39:51;-7.50;99.90
23188;DHT22;11762;59.878;17.686;2023-04-01T03:42:18;-7.50;99.90
23188;DHT22;11762;59.878;17.686;2023-04-01T03:44:45;-7.40;99.90
23188;DHT22;11762;59.878;17.686;2023-04-01T03:47:12;-7.40;99.90
23188;DHT22;11762;59.878;17.686;2023-04-01T03:49:41;-7.40;99.90
23188;DHT22;11762;59.878;17.686;2023-04-01T03:52:09;-7.40;99.90
23188;DHT22;11762;59.878;17.686;2023-04-01T03:54:37;-7.40;99.90
23188;DHT22;11762;59.878;17.686;2023-04-01T03:57:04;-7.40;99.90
23188;DHT22;11762;59.878;17.686;2023-04-01T03:59:31;-7.40;99.90
23188;DHT22;11762;59.878;17.686;2023-04-01T04:01:58;-7.40;99.90
23188;DHT22;11762;59.878;17.686;2023-04-01T04:04:26;-7.40;99.90
23188;DHT22;11762;59.878;17.686;2023-04-01T04:06:55;-7.40;99.90
23188;DHT22;11762;59.878;17.686;2023-04-01T04:09:22;-7.40;99.90
23188;DHT22;11762;59.878;17.686;2023-04-01T04:11:49;-7.40;99.90
23188;DHT22;11762;59.878;17.686;2023-04-01T04:14:17;-7.40;99.90
23188;DHT22;11762;59.878;17.686;2023-04-01T04:16:44;-7.40;99.90
23188;DHT22;11762;59.878;17.686;2023-04-01T04:19:11;-7.40;99.90
23188;DHT22;11762;59.878;17.686;2023-04-01T04:21:39;-7.40;99.90
23188;DHT22;11762;59.878;17.686;2023-04-01T04:24:08;-7.40;99.90
23188;DHT22;11762;59.878;17.686;2023-04-01T04:26:36;-7.40;99.90
23188;DHT22;11762;59.878;17.686;2023-04-01T04:29:03;-7.30;99.90
23188;DHT22;11762;59.878;17.686;2023-04-01T04:31:30;-7.20;99.90
23188;DHT22;11762;59.878;17.686;2023-04-01T04:33:58;-7.10;99.90
23188;DHT22;11762;59.878;17.686;2023-04-01T04:36:26;-6.90;99.90
23188;DHT22;11762;59.878;17.686;2023-04-01T04:38:53;-6.70;99.90
23188;DHT22;11762;59.878;17.686;2023-04-01T04:41:21;-6.30;99.90
23188;DHT22;11762;59.878;17.686;2023-04-01T04:43:49;-6.00;99.90
23188;DHT22;11762;59.878;17.686;2023-04-01T04:46:17;-5.70;99.90
23188;DHT22;11762;59.878;17.686;2023-04-01T04:48:44;-5.50;99.90
23188;DHT22;11762;59.878;17.686;2023-04-01T04:51:13;-5.50;99.90
23188;DHT22;11762;59.878;17.686;2023-04-01T04:53:41;-5.30;99.90
23188;DHT22;11762;59.878;17.686;2023-04-01T04:56:08;-5.20;99.90
23188;DHT22;11762;59.878;17.686;2023-04-01T04:58:37;-5.00;99.90
23188;DHT22;11762;59.878;17.686;2023-04-01T05:01:09;-4.70;99.90
23188;DHT22;11762;59.878;17.686;2023-04-01T05:03:36;-4.70;99.90
23188;DHT22;11762;59.878;17.686;2023-04-01T05:06:05;-4.50;99.90
23188;DHT22;11762;59.878;17.686;2023-04-01T05:08:32;-4.50;99.90
23188;DHT22;11762;59.878;17.686;2023-04-01T05:10:59;-4.30;99.90
23188;DHT22;11762;59.878;17.686;2023-04-01T05:13:27;-4.30;99.90
23188;DHT22;11762;59.878;17.686;2023-04-01T05:15:55;-4.20;99.90
23188;DHT22;11762;59.878;17.686;2023-04-01T05:18:22;-4.00;99.90
23188;DHT22;11762;59.878;17.686;2023-04-01T05:20:51;-3.90;99.90
23188;DHT22;11762;59.878;17.686;2023-04-01T05:23:19;-3.70;99.90
23188;DHT22;11762;59.878;17.686;2023-04-01T05:25:47;-3.40;99.90
23188;DHT22;11762;59.878;17.686;2023-04-01T05:28:14;-3.40;99.90
23188;DHT22;11762;59.878;17.686;2023-04-01T05:30:42;-3.10;99.90
23188;DHT22;11762;59.878;17.686;2023-04-01T05:33:12;-2.80;99.90
23188;DHT22;11762;59.878;17.686;2023-04-01T05:35:40;-2.90;99.90
23188;DHT22;11762;59.878;17.686;2023-04-01T05:38:07;-2.90;99.90
23188;DHT22;11762;59.878;17.686;2023-04-01T05:40:34;-3.00;99.90
23188;DHT22;11762;59.878;17.686;2023-04-01T05:43:01;-3.20;99.90
23188;DHT22;11762;59.878;17.686;2023-04-01T05:45:29;-3.70;99.90
23188;DHT22;11762;59.878;17.686;2023-04-01T05:47:56;-4.10;99.90
23188;DHT22;11762;59.878;17.686;2023-04-01T05:50:24;-4.30;99.90
23188;DHT22;11762;59.878;17.686;2023-04-01T05:52:52;-4.50;99.90
23188;DHT22;11762;59.878;17.686;2023-04-01T05:55:19;-4.60;99.90
23188;DHT22;11762;59.878;17.686;2023-04-01T05:57:46;-4.70;99.90
23188;DHT22;11762;59.878;17.686;2023-04-01T06:00:16;-4.70;99.90
23188;DHT22;11762;59.878;17.686;2023-04-01T06:02:45;-4.60;99.90
23188;DHT22;11762;59.878;17.686;2023-04-01T06:05:16;-4.40;99.90
23188;DHT22;11762;59.878;17.686;2023-04-01T06:07:45;-4.10;99.90
23188;DHT22;11762;59.878;17.686;2023-04-01T06:10:13;-3.40;99.90
23188;DHT22;11762;59.878;17.686;2023-04-01T06:12:49;-2.80;99.90
23188;DHT22;11762;59.878;17.686;2023-04-01T06:15:28;-2.50;99.90
23188;DHT22;11762;59.878;17.686;2023-04-01T06:21:13;-2.00;99.90
23188;DHT22;11762;59.878;17.686;2023-04-01T06:23:54;-1.80;99.90
23188;DHT22;11762;59.878;17.686;2023-04-01T06:26:31;-1.70;99.90
23188;DHT22;11762;59.878;17.686;2023-04-01T06:29:41;-1.50;99.90
23188;DHT22;11762;59.878;17.686;2023-04-01T06:32:38;-1.50;99.90
23188;DHT22;11762;59.878;17.686;2023-04-01T06:35:36;-1.20;99.90
23188;DHT22;11762;59.878;17.686;2023-04-01T06:38:30;-1.00;99.90
23188;DHT22;11762;59.878;17.686;2023-04-01T06:41:25;-0.90;99.90
23188;DHT22;11762;59.878;17.686;2023-04-01T06:43:59;-0.90;99.90
23188;DHT22;11762;59.878;17.686;2023-04-01T06:46:38;-0.70;99.90
23188;DHT22;11762;59.878;17.686;2023-04-01T06:49:39;-0.60;99.90
23188;DHT22;11762;59.878;17.686;2023-04-01T06:52:17;-0.80;99.90
23188;DHT22;11762;59.878;17.686;2023-04-01T06:54:49;-0.90;99.90
23188;DHT22;11762;59.878;17.686;2023-04-01T06:57:25;-1.00;99.90
23188;DHT22;11762;59.878;17.686;2023-04-01T06:59:57;-1.20;99.90
23188;DHT22;11762;59.878;17.686;2023-04-01T07:02:34;-1.50;99.90
23188;DHT22;11762;59.878;17.686;2023-04-01T07:05:05;-1.60;99.90
23188;DHT22;11762;59.878;17.686;2023-04-01T07:07:35;-1.70;99.90
23188;DHT22;11762;59.878;17.686;2023-04-01T07:10:09;-1.80;99.90
23188;DHT22;11762;59.878;17.686;2023-04-01T07:12:44;-1.80;99.90
23188;DHT22;11762;59.878;17.686;2023-04-01T07:15:18;-1.70;99.90
23188;DHT22;11762;59.878;17.686;2023-04-01T07:17:48;-1.70;99.90
23188;DHT22;11762;59.878;17.686;2023-04-01T07:20:22;-1.70;99.90
23188;DHT22;11762;59.878;17.686;2023-04-01T07:22:51;-1.60;99.90
23188;DHT22;11762;59.878;17.686;2023-04-01T07:25:22;-1.50;99.90
23188;DHT22;11762;59.878;17.686;2023-04-01T07:27:56;-1.40;99.90
23188;DHT22;11762;59.878;17.686;2023-04-01T07:30:28;-1.30;99.90
23188;DHT22;11762;59.878;17.686;2023-04-01T07:33:00;-1.10;99.90
23188;DHT22;11762;59.878;17.686;2023-04-01T07:35:32;-1.00;99.90
23188;DHT22;11762;59.878;17.686;2023-04-01T07:38:15;-0.90;99.90
23188;DHT22;11762;59.878;17.686;2023-04-01T07:40:49;-0.80;99.90
23188;DHT22;11762;59.878;17.686;2023-04-01T07:43:41;-0.80;99.90
23188;DHT22;11762;59.878;17.686;2023-04-01T07:46:18;-0.70;99.90
23188;DHT22;11762;59.878;17.686;2023-04-01T07:48:57;-0.60;99.90
23188;DHT22;11762;59.878;17.686;2023-04-01T07:51:30;-0.50;99.90
23188;DHT22;11762;59.878;17.686;2023-04-01T07:54:06;-0.40;99.90
23188;DHT22;11762;59.878;17.686;2023-04-01T07:56:40;-0.30;99.90
23188;DHT22;11762;59.878;17.686;2023-04-01T07:59:17;-0.20;99.90
23188;DHT22;11762;59.878;17.686;2023-04-01T08:01:52;0.00;99.90
23188;DHT22;11762;59.878;17.686;2023-04-01T08:04:32;0.10;99.90
23188;DHT22;11762;59.878;17.686;2023-04-01T08:07:06;0.20;99.90
23188;DHT22;11762;59.878;17.686;2023-04-01T08:09:42;0.30;99.90
23188;DHT22;11762;59.878;17.686;2023-04-01T08:12:22;0.50;99.90
23188;DHT22;11762;59.878;17.686;2023-04-01T08:15:00;0.50;99.90
23188;DHT22;11762;59.878;17.686;2023-04-01T08:17:38;0.60;99.90
23188;DHT22;11762;59.878;17.686;2023-04-01T08:20:23;0.60;99.90
23188;DHT22;11762;59.878;17.686;2023-04-01T08:22:58;0.70;99.90
23188;DHT22;11762;59.878;17.686;2023-04-01T08:25:28;0.70;99.90
23188;DHT22;11762;59.878;17.686;2023-04-01T08:28:00;0.80;99.90
23188;DHT22;11762;59.878;17.686;2023-04-01T08:30:39;0.90;99.90
23188;DHT22;11762;59.878;17.686;2023-04-01T08:33:12;1.00;99.90
23188;DHT22;11762;59.878;17.686;2023-04-01T08:35:45;1.10;99.90
23188;DHT22;11762;59.878;17.686;2023-04-01T08:38:18;1.10;99.90
23188;DHT22;11762;59.878;17.686;2023-04-01T08:41:07;1.30;99.90
23188;DHT22;11762;59.878;17.686;2023-04-01T08:43:54;1.30;99.90
23188;DHT22;11762;59.878;17.686;2023-04-01T08:50:05;1.50;99.90
23188;DHT22;11762;59.878;17.686;2023-04-01T08:52:42;1.60;99.90
23188;DHT22;11762;59.878;17.686;2023-04-01T08:55:25;1.70;99.90
23188;DHT22;11762;59.878;17.686;2023-04-01T08:58:11;1.80;99.90
23188;DHT22;11762;59.878;17.686;2023-04-01T09:00:49;1.90;99.90
23188;DHT22;11762;59.878;17.686;2023-04-01T09:03:48;2.10;99.90
23188;DHT22;11762;59.878;17.686;2023-04-01T09:06:35;2.20;99.90
23188;DHT22;11762;59.878;17.686;2023-04-01T09:12:26;2.40;99.90
23188;DHT22;11762;59.878;17.686;2023-04-01T09:15:27;2.60;99.90
23188;DHT22;11762;59.878;17.686;2023-04-01T09:18:15;2.60;99.90
23188;DHT22;11762;59.878;17.686;2023-04-01T09:20:58;2.60;99.90
23188;DHT22;11762;59.878;17.686;2023-04-01T09:24:02;2.70;99.90
23188;DHT22;11762;59.878;17.686;2023-04-01T09:26:48;3.00;99.90
23188;DHT22;11762;59.878;17.686;2023-04-01T09:29:31;3.20;99.90
23188;DHT22;11762;59.878;17.686;2023-04-01T09:32:16;3.30;99.90
23188;DHT22;11762;59.878;17.686;2023-04-01T09:34:54;3.30;99.90
23188;DHT22;11762;59.878;17.686;2023-04-01T09:40:16;3.50;99.90
23188;DHT22;11762;59.878;17.686;2023-04-01T09:42:53;3.50;99.90
23188;DHT22;11762;59.878;17.686;2023-04-01T09:45:35;3.50;99.90
23188;DHT22;11762;59.878;17.686;2023-04-01T09:48:13;3.40;99.90
23188;DHT22;11762;59.878;17.686;2023-04-01T09:50:52;3.50;99.90
23188;DHT22;11762;59.878;17.686;2023-04-01T09:53:36;3.40;99.90
23188;DHT22;11762;59.878;17.686;2023-04-01T10:21:08;3.90;99.90
23188;DHT22;11762;59.878;17.686;2023-04-01T10:27:16;4.10;99.90
23188;DHT22;11762;59.878;17.686;2023-04-01T10:36:15;4.10;99.90
23188;DHT22;11762;59.878;17.686;2023-04-01T10:42:02;3.80;99.90
23188;DHT22;11762;59.878;17.686;2023-04-01T10:48:09;3.80;99.90
23188;DHT22;11762;59.878;17.686;2023-04-01T10:54:03;3.90;99.90
23188;DHT22;11762;59.878;17.686;2023-04-01T10:56:39;4.00;99.90
23188;DHT22;11762;59.878;17.686;2023-04-01T11:03:03;4.00;99.90
23188;DHT22;11762;59.878;17.686;2023-04-01T11:05:58;3.80;99.90
23188;DHT22;11762;59.878;17.686;2023-04-01T11:09:25;4.00;99.90
23188;DHT22;11762;59.878;17.686;2023-04-01T11:12:29;4.00;99.90
23188;DHT22;11762;59.878;17.686;2023-04-01T11:15:44;3.80;99.90
23188;DHT22;11762;59.878;17.686;2023-04-01T11:21:54;3.90;99.90
23188;DHT22;11762;59.878;17.686;2023-04-01T11:24:36;3.70;99.90
23188;DHT22;11762;59.878;17.686;2023-04-01T11:27:20;3.70;99.90
23188;DHT22;11762;59.878;17.686;2023-04-01T11:32:53;3.70;99.90
23188;DHT22;11762;59.878;17.686;2023-04-01T11:35:38;3.70;99.90
23188;DHT22;11762;59.878;17.686;2023-04-01T11:38:28;3.70;99.90
23188;DHT22;11762;59.878;17.686;2023-04-01T11:41:05;3.70;99.90
23188;DHT22;11762;59.878;17.686;2023-04-01T11:43:38;4.00;99.90
23188;DHT22;11762;59.878;17.686;2023-04-01T11:46:11;3.90;99.90
23188;DHT22;11762;59.878;17.686;2023-04-01T11:48:54;3.70;99.90
23188;DHT22;11762;59.878;17.686;2023-04-01T11:51:46;3.70;99.90
23188;DHT22;11762;59.878;17.686;2023-04-01T11:54:38;3.60;99.90
23188;DHT22;11762;59.878;17.686;2023-04-01T11:57:20;3.50;99.90
23188;DHT22;11762;59.878;17.686;2023-04-01T12:02:47;3.60;99.90
23188;DHT22;11762;59.878;17.686;2023-04-01T12:05:28;3.60;99.90
23188;DHT22;11762;59.878;17.686;2023-04-01T12:08:10;3.70;99.90
23188;DHT22;11762;59.878;17.686;2023-04-01T12:10:45;3.60;99.90
23188;DHT22;11762;59.878;17.686;2023-04-01T12:13:24;3.90;99.90
23188;DHT22;11762;59.878;17.686;2023-04-01T12:16:11;3.80;99.90
23188;DHT22;11762;59.878;17.686;2023-04-01T12:18:43;3.90;99.90
23188;DHT22;11762;59.878;17.686;2023-04-01T12:21:21;3.90;99.90
23188;DHT22;11762;59.878;17.686;2023-04-01T12:27:04;3.70;99.90
23188;DHT22;11762;59.878;17.686;2023-04-01T12:29:53;3.50;99.90
23188;DHT22;11762;59.878;17.686;2023-04-01T12:32:30;3.50;99.90
23188;DHT22;11762;59.878;17.686;2023-04-01T12:35:20;3.60;99.90
23188;DHT22;11762;59.878;17.686;2023-04-01T12:38:02;3.40;99.90
23188;DHT22;11762;59.878;17.686;2023-04-01T12:40:50;3.30;99.90
23188;DHT22;11762;59.878;17.686;2023-04-01T12:46:23;3.40;99.90
23188;DHT22;11762;59.878;17.686;2023-04-01T12:49:22;3.50;99.90
23188;DHT22;11762;59.878;17.686;2023-04-01T12:52:05;3.50;99.90
23188;DHT22;11762;59.878;17.686;2023-04-01T12:55:00;3.30;99.90
23188;DHT22;11762;59.878;17.686;2023-04-01T13:00:52;3.20;99.90
23188;DHT22;11762;59.878;17.686;2023-04-01T13:03:39;3.40;99.90
23188;DHT22;11762;59.878;17.686;2023-04-01T13:06:23;3.40;99.90
23188;DHT22;11762;59.878;17.686;2023-04-01T13:08:57;3.40;99.90
23188;DHT22;11762;59.878;17.686;2023-04-01T13:11:38;3.40;99.90
23188;DHT22;11762;59.878;17.686;2023-04-01T13:14:26;3.50;99.90
23188;DHT22;11762;59.878;17.686;2023-04-01T13:17:03;3.40;99.90
23188;DHT22;11762;59.878;17.686;2023-04-01T13:19:40;3.30;99.90
23188;DHT22;11762;59.878;17.686;2023-04-01T13:22:15;3.20;99.90
23188;DHT22;11762;59.878;17.686;2023-04-01T13:24:51;3.20;99.90
23188;DHT22;11762;59.878;17.686;2023-04-01T13:30:24;3.00;99.90
23188;DHT22;11762;59.878;17.686;2023-04-01T13:32:59;2.90;99.90
23188;DHT22;11762;59.878;17.686;2023-04-01T13:35:38;2.80;99.90
23188;DHT22;11762;59.878;17.686;2023-04-01T13:38:41;2.80;99.90
23188;DHT22;11762;59.878;17.686;2023-04-01T13:41:22;2.90;99.90
23188;DHT22;11762;59.878;17.686;2023-04-01T13:43:58;2.90;99.90
23188;DHT22;11762;59.878;17.686;2023-04-01T13:46:47;3.00;99.90
23188;DHT22;11762;59.878;17.686;2023-04-01T13:55:39;3.30;99.90
23188;DHT22;11762;59.878;17.686;2023-04-01T13:58:23;3.20;99.90
23188;DHT22;11762;59.878;17.686;2023-04-01T14:01:04;3.20;99.90
23188;DHT22;11762;59.878;17.686;2023-04-01T14:03:53;3.20;99.90
23188;DHT22;11762;59.878;17.686;2023-04-01T14:06:31;3.00;99.90
23188;DHT22;11762;59.878;17.686;2023-04-01T14:09:16;2.90;99.90
23188;DHT22;11762;59.878;17.686;2023-04-01T14:11:53;2.80;99.90
23188;DHT22;11762;59.878;17.686;2023-04-01T14:14:32;2.80;99.90
23188;DHT22;11762;59.878;17.686;2023-04-01T14:17:13;2.70;99.90
23188;DHT22;11762;59.878;17.686;2023-04-01T14:20:04;2.60;99.90
23188;DHT22;11762;59.878;17.686;2023-04-01T14:22:41;2.60;99.90
23188;DHT22;11762;59.878;17.686;2023-04-01T14:28:17;2.70;99.90
23188;DHT22;11762;59.878;17.686;2023-04-01T14:31:06;2.90;99.90
23188;DHT22;11762;59.878;17.686;2023-04-01T14:33:46;2.90;99.90
23188;DHT22;11762;59.878;17.686;2023-04-01T14:36:34;2.90;99.90
23188;DHT22;11762;59.878;17.686;2023-04-01T14:39:21;2.70;99.90
23188;DHT22;11762;59.878;17.686;2023-04-01T14:42:04;2.50;99.90
23188;DHT22;11762;59.878;17.686;2023-04-01T14:45:07;2.50;99.90
23188;DHT22;11762;59.878;17.686;2023-04-01T14:47:48;2.60;99.90
23188;DHT22;11762;59.878;17.686;2023-04-01T14:50:18;2.70;99.90
23188;DHT22;11762;59.878;17.686;2023-04-01T14:52:57;2.60;99.90
23188;DHT22;11762;59.878;17.686;2023-04-01T14:55:32;2.60;99.90
23188;DHT22;11762;59.878;17.686;2023-04-01T14:58:09;2.60;99.90
23188;DHT22;11762;59.878;17.686;2023-04-01T15:00:50;2.50;99.90
23188;DHT22;11762;59.878;17.686;2023-04-01T15:03:25;2.30;99.90
23188;DHT22;11762;59.878;17.686;2023-04-01T15:06:10;2.60;99.90
23188;DHT22;11762;59.878;17.686;2023-04-01T15:08:47;2.70;99.90
23188;DHT22;11762;59.878;17.686;2023-04-01T15:11:29;2.70;99.90
23188;DHT22;11762;59.878;17.686;2023-04-01T15:14:24;2.60;99.90
23188;DHT22;11762;59.878;17.686;2023-04-01T15:17:02;2.80;99.90
23188;DHT22;11762;59.878;17.686;2023-04-01T15:19:46;2.40;99.90
23188;DHT22;11762;59.878;17.686;2023-04-01T15:25:31;2.40;99.90
23188;DHT22;11762;59.878;17.686;2023-04-01T15:28:08;2.40;99.90
23188;DHT22;11762;59.878;17.686;2023-04-01T15:30:46;2.40;99.90
23188;DHT22;11762;59.878;17.686;2023-04-01T15:33:43;2.50;99.90
23188;DHT22;11762;59.878;17.686;2023-04-01T15:36:26;2.50;99.90
23188;DHT22;11762;59.878;17.686;2023-04-01T15:39:05;2.40;99.90
23188;DHT22;11762;59.878;17.686;2023-04-01T15:41:43;2.40;99.90
23188;DHT22;11762;59.878;17.686;2023-04-01T15:44:38;2.20;99.90
23188;DHT22;11762;59.878;17.686;2023-04-01T15:47:31;2.20;99.90
23188;DHT22;11762;59.878;17.686;2023-04-01T15:53:03;2.20;99.90
23188;DHT22;11762;59.878;17.686;2023-04-01T15:55:37;2.20;99.90
23188;DHT22;11762;59.878;17.686;2023-04-01T15:58:27;2.10;99.90
23188;DHT22;11762;59.878;17.686;2023-04-01T16:01:04;2.00;99.90
23188;DHT22;11762;59.878;17.686;2023-04-01T16:03:39;1.90;99.90
23188;DHT22;11762;59.878;17.686;2023-04-01T16:12:16;2.00;99.90
23188;DHT22;11762;59.878;17.686;2023-04-01T16:14:55;2.00;99.90
23188;DHT22;11762;59.878;17.686;2023-04-01T16:17:36;1.90;99.90
23188;DHT22;11762;59.878;17.686;2023-04-01T16:20:18;1.80;99.90
23188;DHT22;11762;59.878;17.686;2023-04-01T16:22:53;1.70;99.90
23188;DHT22;11762;59.878;17.686;2023-04-01T16:25:31;1.40;99.90
23188;DHT22;11762;59.878;17.686;2023-04-01T16:28:14;1.40;99.90
23188;DHT22;11762;59.878;17.686;2023-04-01T16:30:45;1.20;99.90
23188;DHT22;11762;59.878;17.686;2023-04-01T16:33:21;1.20;99.90
23188;DHT22;11762;59.878;17.686;2023-04-01T16:35:57;1.30;99.90
23188;DHT22;11762;59.878;17.686;2023-04-01T16:38:31;1.30;99.90
23188;DHT22;11762;59.878;17.686;2023-04-01T16:41:09;1.30;99.90
23188;DHT22;11762;59.878;17.686;2023-04-01T16:43:41;1.20;99.90
23188;DHT22;11762;59.878;17.686;2023-04-01T16:46:35;1.30;99.90
23188;DHT22;11762;59.878;17.686;2023-04-01T16:49:23;1.10;99.90
23188;DHT22;11762;59.878;17.686;2023-04-01T16:51:57;0.80;99.90
23188;DHT22;11762;59.878;17.686;2023-04-01T16:54:39;0.70;99.90
23188;DHT22;11762;59.878;17.686;2023-04-01T16:57:17;0.80;99.90
23188;DHT22;11762;59.878;17.686;2023-04-01T16:59:48;0.80;99.90
23188;DHT22;11762;59.878;17.686;2023-04-01T17:02:23;0.70;99.90
23188;DHT22;11762;59.878;17.686;2023-04-01T17:04:57;0.80;99.90
23188;DHT22;11762;59.878;17.686;2023-04-01T17:07:33;0.70;99.90
23188;DHT22;11762;59.878;17.686;2023-04-01T17:10:33;0.80;99.90
23188;DHT22;11762;59.878;17.686;2023-04-01T17:13:30;0.80;99.90
23188;DHT22;11762;59.878;17.686;2023-04-01T17:18:58;0.70;99.90
23188;DHT22;11762;59.878;17.686;2023-04-01T17:21:47;0.60;99.90
23188;DHT22;11762;59.878;17.686;2023-04-01T17:24:33;0.50;99.90
23188;DHT22;11762;59.878;17.686;2023-04-01T17:27:13;0.50;99.90
23188;DHT22;11762;59.878;17.686;2023-04-01T17:30:01;0.50;99.90
23188;DHT22;11762;59.878;17.686;2023-04-01T17:32:43;0.30;99.90
23188;DHT22;11762;59.878;17.686;2023-04-01T17:35:18;0.20;99.90
23188;DHT22;11762;59.878;17.686;2023-04-01T17:37:57;0.20;99.90
23188;DHT22;11762;59.878;17.686;2023-04-01T17:40:38;-0.10;99.90
23188;DHT22;11762;59.878;17.686;2023-04-01T17:43:15;-0.20;99.90
23188;DHT22;11762;59.878;17.686;2023-04-01T17:45:51;-0.40;99.90
23188;DHT22;11762;59.878;17.686;2023-04-01T17:48:24;-0.40;99.90
23188;DHT22;11762;59.878;17.686;2023-04-01T17:51:16;-0.40;99.90
23188;DHT22;11762;59.878;17.686;2023-04-01T17:53:49;-0.50;99.90
23188;DHT22;11762;59.878;17.686;2023-04-01T17:56:32;-0.50;99.90
23188;DHT22;11762;59.878;17.686;2023-04-01T17:59:11;-0.70;99.90
23188;DHT22;11762;59.878;17.686;2023-04-01T18:01:53;-0.80;99.90
23188;DHT22;11762;59.878;17.686;2023-04-01T18:04:43;-0.90;99.90
23188;DHT22;11762;59.878;17.686;2023-04-01T18:07:30;-0.90;99.90
23188;DHT22;11762;59.878;17.686;2023-04-01T18:10:15;-0.90;99.90